Time;durP1;ratioP1;P1;durP2;ratioP2;P2;SDS_P1;SDS_P2;PMS_P1;PMS_P2;Temp;Humidity;BMP_temperature;BMP_pressure;BME280_temperature;BME280_humidity;BME280_pressure;Samples;Min_cycle;Max_cycle;Signal;HPM_P1;HPM_P2
2022/08/03 00:00:40;;;;;;;5.82;3.13;;;;;;;;;;4971763;28;20030;-79
2022/08/03 00:03:05;;;;;;;4.45;3.17;;;;;;;;;;4973582;28;20327;-81
2022/08/03 00:05:32;;;;;;;3.17;2.88;;;;;;;;;;4978800;28;20121;-79
2022/08/03 00:07:58;;;;;;;3.45;3.15;;;;;;;;;;4980690;28;20022;-80
2022/08/03 00:10:23;;;;;;;3.38;3.08;;;;;;;;;;4975841;28;20042;-80
2022/08/03 00:12:49;;;;;;;3.90;3.22;;;;;;;;;;4978945;28;20101;-82
2022/08/03 00:15:15;;;;;;;4.18;3.30;;;;;;;;;;4979293;28;20447;-81
2022/08/03 00:17:40;;;;;;;3.65;3.35;;;;;;;;;;4976938;28;20057;-78
2022/08/03 00:20:05;;;;;;;3.40;2.67;;;;;;;;;;4975379;28;20034;-79
2022/08/03 00:22:33;;;;;;;3.60;3.30;;;;;;;;;;4976617;28;20473;-80
2022/08/03 00:24:58;;;;;;;3.05;2.80;;;;;;;;;;4979321;28;20410;-82
2022/08/03 00:27:24;;;;;;;2.92;2.72;;;;;;;;;;4974048;28;20073;-81
2022/08/03 00:29:49;;;;;;;3.03;2.83;;;;;;;;;;4984319;28;20122;-79
2022/08/03 00:32:14;;;;;;;3.08;2.88;;;;;;;;;;4978314;28;20057;-80
2022/08/03 00:34:40;;;;;;;3.08;2.88;;;;;;;;;;4975646;28;20085;-81
2022/08/03 00:37:05;;;;;;;4.18;3.58;;;;;;;;;;4984082;28;20045;-80
2022/08/03 00:39:30;;;;;;;3.40;3.15;;;;;;;;;;4983033;28;20030;-79
2022/08/03 00:41:56;;;;;;;3.40;2.63;;;;;;;;;;4983175;28;20034;-78
2022/08/03 00:44:21;;;;;;;4.85;3.28;;;;;;;;;;4991235;28;20065;-78
2022/08/03 00:46:46;;;;;;;5.03;4.53;;;;;;;;;;4980058;28;20037;-79
2022/08/03 00:49:12;;;;;;;5.38;4.40;;;;;;;;;;4971947;28;20450;-81
2022/08/03 00:51:37;;;;;;;4.25;3.85;;;;;;;;;;4982040;28;20026;-77
2022/08/03 00:54:03;;;;;;;3.42;3.13;;;;;;;;;;4984808;28;20022;-79
2022/08/03 00:56:28;;;;;;;3.92;3.63;;;;;;;;;;4980284;28;20379;-81
2022/08/03 00:58:55;;;;;;;3.78;3.47;;;;;;;;;;4982883;28;20104;-77
2022/08/03 01:01:21;;;;;;;3.80;3.50;;;;;;;;;;4976995;28;20033;-76
2022/08/03 01:03:46;;;;;;;4.13;3.70;;;;;;;;;;4976937;28;20030;-78
2022/08/03 01:06:14;;;;;;;4.50;3.35;;;;;;;;;;4976698;28;20037;-83
2022/08/03 01:08:40;;;;;;;3.55;3.30;;;;;;;;;;4981888;28;20027;-79
2022/08/03 01:11:18;;;;;;;4.18;3.88;;;;;;;;;;4982363;28;20088;-78
2022/08/03 01:13:49;;;;;;;5.15;4.00;;;;;;;;;;4991182;28;20053;-83
2022/08/03 01:16:18;;;;;;;3.55;3.25;;;;;;;;;;4981388;28;20026;-79
2022/08/03 01:18:43;;;;;;;3.38;2.90;;;;;;;;;;4974991;28;20524;-78
2022/08/03 01:21:15;;;;;;;2.88;2.67;;;;;;;;;;4975868;28;20097;-79
2022/08/03 01:24:00;;;;;;;3.45;3.25;;;;;;;;;;4981656;28;20089;-78
2022/08/03 01:26:44;;;;;;;3.10;2.90;;;;;;;;;;4979945;28;20053;-77
2022/08/03 01:29:09;;;;;;;3.60;3.17;;;;;;;;;;4974151;28;20038;-77
2022/08/03 01:31:37;;;;;;;3.33;3.03;;;;;;;;;;4977144;28;20023;-78
2022/08/03 01:34:05;;;;;;;3.42;3.22;;;;;;;;;;4971710;28;20068;-78
2022/08/03 01:36:32;;;;;;;3.70;3.40;;;;;;;;;;4974268;28;20113;-79
2022/08/03 01:39:00;;;;;;;3.10;2.90;;;;;;;;;;4982870;28;20026;-78
2022/08/03 01:41:29;;;;;;;2.85;2.65;;;;;;;;;;4981427;28;20056;-78
2022/08/03 01:43:56;;;;;;;3.60;2.92;;;;;;;;;;4981978;28;20018;-80
2022/08/03 01:46:24;;;;;;;3.97;3.67;;;;;;;;;;4981600;28;20441;-78
2022/08/03 01:48:49;;;;;;;4.43;3.55;;;;;;;;;;4972387;28;20037;-77
2022/08/03 01:51:18;;;;;;;4.20;3.38;;;;;;;;;;4980652;28;20027;-77
2022/08/03 01:53:43;;;;;;;3.22;2.97;;;;;;;;;;4983246;28;20551;-77
2022/08/03 01:56:09;;;;;;;3.38;3.10;;;;;;;;;;4980228;28;20023;-76
2022/08/03 01:58:35;;;;;;;3.45;3.20;;;;;;;;;;4977962;28;20038;-77
2022/08/03 02:01:02;;;;;;;4.38;3.22;;;;;;;;;;4976233;28;20026;-76
2022/08/03 02:03:28;;;;;;;3.10;2.90;;;;;;;;;;4968312;28;20033;-78
2022/08/03 02:05:54;;;;;;;3.80;3.47;;;;;;;;;;4979344;28;20400;-78
2022/08/03 02:08:20;;;;;;;3.80;3.50;;;;;;;;;;4982988;28;20022;-77
2022/08/03 02:10:46;;;;;;;4.25;3.10;;;;;;;;;;4982417;28;20065;-77
2022/08/03 02:13:14;;;;;;;3.53;3.22;;;;;;;;;;4979473;28;20053;-77
2022/08/03 02:15:40;;;;;;;3.65;3.35;;;;;;;;;;4983685;28;20022;-78
2022/08/03 02:18:07;;;;;;;3.30;3.10;;;;;;;;;;4975130;28;20465;-78
2022/08/03 02:20:35;;;;;;;3.00;2.80;;;;;;;;;;4977263;28;20140;-81
2022/08/03 02:23:00;;;;;;;3.15;2.92;;;;;;;;;;4979849;28;20053;-78
2022/08/03 02:25:26;;;;;;;3.25;3.05;;;;;;;;;;4978075;28;20426;-78
2022/08/03 02:27:54;;;;;;;3.28;2.97;;;;;;;;;;4979296;28;20037;-83
2022/08/03 02:30:20;;;;;;;3.50;3.20;;;;;;;;;;4980582;28;20033;-78
2022/08/03 02:32:50;;;;;;;3.53;3.22;;;;;;;;;;4975091;28;20036;-80
2022/08/03 02:35:18;;;;;;;3.97;2.88;;;;;;;;;;4977202;28;20780;-80
2022/08/03 02:37:48;;;;;;;3.13;2.90;;;;;;;;;;4980691;28;20032;-78
2022/08/03 02:40:14;;;;;;;3.10;2.72;;;;;;;;;;4981234;28;20042;-80
2022/08/03 02:42:40;;;;;;;3.25;3.05;;;;;;;;;;4981161;28;20033;-84
2022/08/03 02:45:06;;;;;;;3.35;2.67;;;;;;;;;;4980587;28;20105;-80
2022/08/03 02:47:34;;;;;;;4.00;3.67;;;;;;;;;;4977299;28;20463;-77
2022/08/03 02:50:00;;;;;;;3.42;3.10;;;;;;;;;;4974190;28;20382;-79
2022/08/03 02:52:26;;;;;;;5.15;3.42;;;;;;;;;;4978382;28;20026;-79
2022/08/03 02:54:55;;;;;;;4.85;3.80;;;;;;;;;;4980458;28;20038;-79
2022/08/03 02:57:20;;;;;;;3.30;3.10;;;;;;;;;;4977204;28;20022;-79
2022/08/03 02:59:46;;;;;;;3.13;2.90;;;;;;;;;;4973375;28;20972;-78
2022/08/03 03:02:13;;;;;;;3.15;2.95;;;;;;;;;;4976356;28;20437;-77
2022/08/03 03:04:39;;;;;;;3.65;3.40;;;;;;;;;;4975029;28;20321;-77
2022/08/03 03:07:04;;;;;;;3.72;3.25;;;;;;;;;;4976210;28;20030;-80
2022/08/03 03:09:31;;;;;;;3.08;2.88;;;;;;;;;;4980666;28;20469;-75
2022/08/03 03:11:56;;;;;;;4.93;2.85;;;;;;;;;;4980637;28;20036;-77
2022/08/03 03:14:23;;;;;;;3.60;3.40;;;;;;;;;;4979020;28;20049;-77
2022/08/03 03:16:50;;;;;;;3.17;2.97;;;;;;;;;;4982751;28;20460;-76
2022/08/03 03:19:16;;;;;;;4.15;3.20;;;;;;;;;;4971313;28;20030;-81
2022/08/03 03:21:42;;;;;;;4.13;3.25;;;;;;;;;;4972768;28;20044;-79
2022/08/03 03:24:08;;;;;;;7.15;3.20;;;;;;;;;;4979447;28;20077;-79
2022/08/03 03:26:34;;;;;;;3.22;2.92;;;;;;;;;;4980673;28;20054;-77
2022/08/03 03:29:00;;;;;;;3.78;3.38;;;;;;;;;;4977741;28;20026;-80
2022/08/03 03:31:26;;;;;;;3.22;2.92;;;;;;;;;;4973528;28;20026;-79
2022/08/03 03:33:51;;;;;;;3.40;3.10;;;;;;;;;;4973345;28;20446;-78
2022/08/03 03:36:17;;;;;;;5.15;3.60;;;;;;;;;;4971067;28;20603;-78
2022/08/03 03:38:42;;;;;;;3.60;3.30;;;;;;;;;;4966827;28;20026;-76
2022/08/03 03:41:08;;;;;;;5.63;3.60;;;;;;;;;;4966147;28;20050;-75
2022/08/03 03:43:34;;;;;;;3.67;3.38;;;;;;;;;;4966454;28;20033;-77
2022/08/03 03:45:59;;;;;;;3.08;2.88;;;;;;;;;;4965051;28;20453;-79
2022/08/03 03:48:25;;;;;;;3.55;3.25;;;;;;;;;;4965291;28;20440;-78
2022/08/03 03:50:50;;;;;;;3.03;2.80;;;;;;;;;;4969570;28;20033;-77
2022/08/03 03:53:16;;;;;;;3.33;2.67;;;;;;;;;;4965802;28;20058;-77
2022/08/03 03:55:41;;;;;;;3.05;2.65;;;;;;;;;;4966311;28;20023;-77
2022/08/03 03:58:07;;;;;;;3.63;3.30;;;;;;;;;;4981937;28;20117;-78
2022/08/03 04:00:32;;;;;;;2.85;2.55;;;;;;;;;;4976213;28;20033;-80
2022/08/03 04:02:58;;;;;;;3.45;3.15;;;;;;;;;;4968245;28;20058;-81
2022/08/03 04:10:59;;;;;;;3.40;3.10;;;;;;;;;;4980824;28;20157;-77
2022/08/03 04:13:32;;;;;;;3.50;3.20;;;;;;;;;;4982175;28;20129;-76
2022/08/03 04:15:58;;;;;;;3.50;3.17;;;;;;;;;;4979563;28;20029;-77
2022/08/03 04:18:25;;;;;;;3.50;2.88;;;;;;;;;;4959356;28;20038;-77
2022/08/03 04:20:51;;;;;;;3.67;3.35;;;;;;;;;;4962818;28;20071;-78
2022/08/03 04:23:18;;;;;;;4.30;3.38;;;;;;;;;;4959914;28;20069;-80
2022/08/03 04:25:45;;;;;;;4.07;3.28;;;;;;;;;;4965874;28;20023;-76
2022/08/03 04:28:10;;;;;;;3.88;3.58;;;;;;;;;;4969129;28;20034;-79
2022/08/03 04:30:37;;;;;;;3.90;3.38;;;;;;;;;;4970640;28;20030;-76
2022/08/03 04:33:03;;;;;;;3.53;3.22;;;;;;;;;;4977009;28;20022;-77
2022/08/03 04:35:31;;;;;;;3.35;3.15;;;;;;;;;;4973304;28;20469;-76
2022/08/03 04:37:56;;;;;;;3.47;3.00;;;;;;;;;;4981091;28;20026;-77
2022/08/03 04:40:25;;;;;;;3.53;3.22;;;;;;;;;;4980539;28;20358;-77
2022/08/03 04:42:52;;;;;;;3.93;3.63;;;;;;;;;;4968740;28;20068;-75
2022/08/03 04:45:18;;;;;;;3.45;3.17;;;;;;;;;;4969669;28;20116;-76
2022/08/03 04:47:43;;;;;;;3.40;3.10;;;;;;;;;;4968086;28;20434;-77
2022/08/03 04:50:10;;;;;;;3.63;3.42;;;;;;;;;;4965235;28;20039;-78
2022/08/03 04:52:35;;;;;;;3.42;3.13;;;;;;;;;;4965023;28;20388;-77
2022/08/03 04:55:01;;;;;;;3.50;3.20;;;;;;;;;;4965341;28;20030;-78
2022/08/03 04:57:26;;;;;;;4.20;3.70;;;;;;;;;;4967131;28;20138;-77
2022/08/03 04:59:55;;;;;;;6.38;5.68;;;;;;;;;;4966669;28;20449;-78
2022/08/03 05:02:21;;;;;;;4.90;4.40;;;;;;;;;;4967401;28;20034;-75
2022/08/03 05:04:46;;;;;;;4.32;3.88;;;;;;;;;;4967337;28;20528;-76
2022/08/03 05:07:12;;;;;;;5.07;3.53;;;;;;;;;;4972884;28;20113;-77
2022/08/03 05:09:37;;;;;;;3.50;3.20;;;;;;;;;;4973310;28;20026;-75
2022/08/03 05:12:03;;;;;;;3.92;3.53;;;;;;;;;;4967697;28;20022;-77
2022/08/03 05:14:29;;;;;;;3.88;3.53;;;;;;;;;;4976874;28;20023;-77
2022/08/03 05:16:54;;;;;;;4.05;3.10;;;;;;;;;;4971566;28;20445;-77
2022/08/03 05:19:19;;;;;;;3.05;2.85;;;;;;;;;;4983974;28;20061;-76
2022/08/03 05:21:45;;;;;;;3.75;3.45;;;;;;;;;;4982687;28;20035;-75
2022/08/03 05:24:10;;;;;;;4.00;3.70;;;;;;;;;;4984174;28;20039;-77
2022/08/03 05:26:36;;;;;;;4.00;3.20;;;;;;;;;;4984744;28;20434;-77
2022/08/03 05:29:01;;;;;;;6.28;3.42;;;;;;;;;;4983090;28;20393;-75
2022/08/03 05:31:26;;;;;;;3.45;3.17;;;;;;;;;;4983873;28;20030;-76
2022/08/03 05:33:52;;;;;;;3.30;3.08;;;;;;;;;;4983950;28;20030;-74
2022/08/03 05:36:17;;;;;;;7.03;2.90;;;;;;;;;;4984981;28;20026;-76
2022/08/03 05:38:43;;;;;;;3.15;2.95;;;;;;;;;;4983403;28;20052;-76
2022/08/03 05:41:08;;;;;;;5.80;3.08;;;;;;;;;;4983871;28;20478;-74
2022/08/03 05:43:34;;;;;;;3.40;3.20;;;;;;;;;;4983417;28;20060;-75
2022/08/03 05:45:59;;;;;;;3.15;2.88;;;;;;;;;;4983852;28;20050;-74
2022/08/03 05:48:25;;;;;;;3.88;3.10;;;;;;;;;;4984441;28;20468;-75
2022/08/03 05:50:50;;;;;;;3.67;3.42;;;;;;;;;;4983122;28;20053;-74
2022/08/03 05:53:16;;;;;;;4.97;3.55;;;;;;;;;;4983470;28;20054;-74
2022/08/03 05:55:41;;;;;;;3.28;2.97;;;;;;;;;;4982694;28;20026;-75
2022/08/03 05:58:06;;;;;;;4.03;3.08;;;;;;;;;;4982968;28;20442;-74
2022/08/03 06:00:32;;;;;;;4.72;2.72;;;;;;;;;;4981839;28;20038;-74
2022/08/03 06:02:57;;;;;;;2.88;2.63;;;;;;;;;;4983206;28;20092;-76
2022/08/03 06:05:22;;;;;;;3.95;3.03;;;;;;;;;;4979964;28;20034;-76
2022/08/03 06:07:48;;;;;;;4.55;3.92;;;;;;;;;;4968149;28;20081;-74
2022/08/03 06:10:13;;;;;;;4.72;3.33;;;;;;;;;;4978627;28;20037;-74
2022/08/03 06:12:40;;;;;;;3.05;2.85;;;;;;;;;;4982141;28;20037;-74
2022/08/03 06:15:05;;;;;;;3.60;3.30;;;;;;;;;;4980999;28;20030;-74
2022/08/03 06:17:31;;;;;;;3.67;3.35;;;;;;;;;;4983644;28;20462;-74
2022/08/03 06:19:56;;;;;;;6.95;3.08;;;;;;;;;;4982071;28;20152;-76
2022/08/03 06:22:22;;;;;;;5.57;4.40;;;;;;;;;;4983444;28;20053;-72
2022/08/03 06:24:47;;;;;;;5.28;3.25;;;;;;;;;;4982344;28;20521;-76
2022/08/03 06:27:12;;;;;;;4.13;3.72;;;;;;;;;;4981668;28;20362;-75
2022/08/03 06:29:38;;;;;;;2.88;2.67;;;;;;;;;;4970810;28;20033;-74
2022/08/03 06:32:03;;;;;;;3.53;2.55;;;;;;;;;;4980255;28;20109;-75
2022/08/03 06:34:29;;;;;;;2.70;2.50;;;;;;;;;;4978352;28;20030;-73
2022/08/03 06:36:54;;;;;;;2.45;2.25;;;;;;;;;;4973125;28;20713;-75
2022/08/03 06:39:20;;;;;;;2.60;2.50;;;;;;;;;;4982190;28;20076;-75
2022/08/03 06:41:45;;;;;;;2.75;2.55;;;;;;;;;;4982744;28;20097;-75
2022/08/03 06:44:11;;;;;;;4.50;3.03;;;;;;;;;;4982618;28;20052;-74
2022/08/03 06:46:37;;;;;;;3.08;2.80;;;;;;;;;;4982719;28;20610;-74
2022/08/03 06:49:02;;;;;;;4.28;2.83;;;;;;;;;;4982968;28;20065;-75
2022/08/03 06:51:28;;;;;;;4.72;3.55;;;;;;;;;;4981992;28;20033;-74
2022/08/03 06:53:54;;;;;;;6.50;4.00;;;;;;;;;;4983092;28;20077;-75
2022/08/03 06:56:20;;;;;;;3.80;3.42;;;;;;;;;;4982452;28;20127;-74
2022/08/03 06:58:46;;;;;;;6.63;3.45;;;;;;;;;;4971771;28;20045;-76
2022/08/03 07:01:11;;;;;;;7.55;3.15;;;;;;;;;;4964807;28;20027;-76
2022/08/03 07:03:37;;;;;;;3.03;2.70;;;;;;;;;;4965646;28;20027;-75
2022/08/03 07:06:02;;;;;;;3.22;2.90;;;;;;;;;;4966455;28;20457;-74
2022/08/03 07:08:28;;;;;;;3.35;2.58;;;;;;;;;;4965064;28;20365;-76
2022/08/03 07:10:53;;;;;;;2.90;2.45;;;;;;;;;;4965459;28;20057;-75
2022/08/03 07:13:19;;;;;;;2.53;2.33;;;;;;;;;;4965020;28;20350;-74
2022/08/03 07:15:44;;;;;;;3.15;2.85;;;;;;;;;;4966506;28;20031;-76
2022/08/03 07:18:09;;;;;;;3.85;2.63;;;;;;;;;;4965495;28;20084;-75
2022/08/03 07:20:35;;;;;;;2.70;2.25;;;;;;;;;;4966817;28;21429;-74
2022/08/03 07:23:00;;;;;;;2.88;2.08;;;;;;;;;;4962851;28;20038;-75
2022/08/03 07:25:26;;;;;;;2.20;2.08;;;;;;;;;;4964728;28;20405;-75
2022/08/03 07:27:51;;;;;;;2.65;2.28;;;;;;;;;;4964174;28;20290;-76
2022/08/03 07:30:16;;;;;;;3.97;2.60;;;;;;;;;;4965910;28;20397;-74
2022/08/03 07:32:42;;;;;;;2.28;2.15;;;;;;;;;;4979527;28;20361;-73
2022/08/03 07:35:08;;;;;;;2.60;2.40;;;;;;;;;;4966916;28;20026;-75
2022/08/03 07:37:33;;;;;;;4.13;2.45;;;;;;;;;;4965413;28;20417;-75
2022/08/03 07:39:59;;;;;;;4.47;2.03;;;;;;;;;;4965304;28;20046;-74
2022/08/03 07:42:26;;;;;;;4.70;2.10;;;;;;;;;;4964827;28;20034;-75
2022/08/03 07:44:51;;;;;;;2.55;2.35;;;;;;;;;;4967527;28;20057;-74
2022/08/03 07:47:17;;;;;;;2.53;2.00;;;;;;;;;;4966338;28;20085;-75
2022/08/03 07:49:42;;;;;;;4.38;2.25;;;;;;;;;;4963770;28;20033;-75
2022/08/03 07:54:52;;;;;;;2.92;2.22;;;;;;;;;;4964937;28;20468;-77
2022/08/03 07:57:17;;;;;;;2.00;1.90;;;;;;;;;;4964018;28;20026;-78
2022/08/03 07:59:44;;;;;;;2.35;2.15;;;;;;;;;;4965166;28;20038;-77
2022/08/03 08:02:09;;;;;;;2.28;2.08;;;;;;;;;;4964354;28;20027;-76
2022/08/03 08:04:35;;;;;;;5.32;2.30;;;;;;;;;;4964518;28;20369;-75
2022/08/03 08:07:00;;;;;;;3.17;2.83;;;;;;;;;;4967343;28;20022;-77
2022/08/03 08:09:25;;;;;;;1.98;1.88;;;;;;;;;;4963251;28;20035;-76
2022/08/03 08:11:51;;;;;;;3.33;1.98;;;;;;;;;;4966138;28;20030;-75
2022/08/03 08:14:16;;;;;;;2.22;2.03;;;;;;;;;;4966013;28;20070;-75
2022/08/03 08:16:41;;;;;;;3.58;1.88;;;;;;;;;;4964849;28;20042;-75
2022/08/03 08:19:07;;;;;;;2.78;2.50;;;;;;;;;;4964563;28;20030;-76
2022/08/03 08:21:32;;;;;;;6.70;2.63;;;;;;;;;;4966600;28;20430;-76
2022/08/03 08:23:58;;;;;;;6.82;2.97;;;;;;;;;;4965199;28;20018;-76
2022/08/03 08:26:24;;;;;;;4.68;2.10;;;;;;;;;;4964633;28;20022;-76
2022/08/03 08:28:49;;;;;;;2.83;2.17;;;;;;;;;;4967827;28;20038;-76
2022/08/03 08:31:14;;;;;;;4.65;2.38;;;;;;;;;;4964994;28;20038;-77
2022/08/03 08:33:40;;;;;;;2.33;2.13;;;;;;;;;;4972251;28;20034;-76
2022/08/03 08:36:05;;;;;;;9.43;8.50;;;;;;;;;;4982757;28;20433;-75
2022/08/03 08:38:33;;;;;;;31.25;27.65;;;;;;;;;;4982273;28;20382;-76
2022/08/03 08:40:58;;;;;;;52.92;42.55;;;;;;;;;;4982095;28;20489;-76
2022/08/03 08:43:24;;;;;;;16.15;12.82;;;;;;;;;;4980717;28;20113;-77
2022/08/03 08:45:50;;;;;;;197.88;165.77;;;;;;;;;;4982586;28;20026;-75
2022/08/03 08:48:21;;;;;;;51.17;45.05;;;;;;;;;;4981465;28;20034;-77
2022/08/03 08:50:47;;;;;;;5.63;5.03;;;;;;;;;;4975363;28;20041;-77
2022/08/03 08:53:12;;;;;;;2.20;2.05;;;;;;;;;;4980745;28;20117;-76
2022/08/03 08:55:38;;;;;;;4.45;2.47;;;;;;;;;;4968198;28;20801;-76
2022/08/03 08:58:08;;;;;;;2.30;2.10;;;;;;;;;;4969024;28;20581;-75
2022/08/03 09:00:34;;;;;;;2.55;2.28;;;;;;;;;;4980422;28;20035;-77
2022/08/03 09:02:59;;;;;;;2.65;1.80;;;;;;;;;;4975141;28;20072;-75
2022/08/03 09:05:25;;;;;;;2.97;2.00;;;;;;;;;;4977336;28;20458;-76
2022/08/03 09:07:51;;;;;;;2.47;2.20;;;;;;;;;;4984354;28;20109;-77
2022/08/03 09:10:23;;;;;;;2.30;1.90;;;;;;;;;;4974723;28;20042;-75
2022/08/03 09:12:49;;;;;;;2.45;2.10;;;;;;;;;;4981608;28;20022;-78
2022/08/03 09:15:23;;;;;;;2.83;2.13;;;;;;;;;;4983762;28;20034;-75
2022/08/03 09:17:50;;;;;;;2.72;2.05;;;;;;;;;;4983976;28;20062;-74
2022/08/03 09:20:15;;;;;;;2.55;2.33;;;;;;;;;;4984220;28;20066;-77
2022/08/03 09:22:50;;;;;;;2.67;1.73;;;;;;;;;;4984032;28;20512;-74
2022/08/03 09:25:16;;;;;;;2.53;1.90;;;;;;;;;;4985246;28;20022;-76
2022/08/03 09:27:42;;;;;;;2.60;1.90;;;;;;;;;;4984441;28;21161;-77
2022/08/03 09:30:14;;;;;;;2.83;2.05;;;;;;;;;;4982951;28;20014;-76
2022/08/03 09:32:40;;;;;;;2.15;2.00;;;;;;;;;;4984618;28;20030;-77
2022/08/03 09:35:06;;;;;;;3.03;1.80;;;;;;;;;;4985043;28;20024;-76
2022/08/03 09:37:31;;;;;;;3.17;1.60;;;;;;;;;;4983609;28;20054;-78
2022/08/03 09:39:57;;;;;;;3.80;2.33;;;;;;;;;;4984510;28;20362;-75
2022/08/03 09:42:22;;;;;;;2.03;1.80;;;;;;;;;;4983934;28;20031;-77
2022/08/03 09:44:49;;;;;;;2.58;2.38;;;;;;;;;;4972380;28;20034;-76
2022/08/03 09:47:26;;;;;;;3.53;3.22;;;;;;;;;;4982248;28;20461;-77
2022/08/03 09:49:57;;;;;;;1.92;1.70;;;;;;;;;;4984419;28;20033;-73
2022/08/03 09:52:28;;;;;;;3.80;2.17;;;;;;;;;;4979933;28;20731;-76
2022/08/03 09:54:54;;;;;;;1.98;1.60;;;;;;;;;;4969854;28;20022;-74
2022/08/03 09:57:20;;;;;;;2.05;1.52;;;;;;;;;;4969677;28;20056;-76
2022/08/03 09:59:46;;;;;;;1.60;1.50;;;;;;;;;;4978104;28;20881;-75
2022/08/03 10:02:21;;;;;;;2.10;2.00;;;;;;;;;;4984510;28;20363;-74
2022/08/03 10:04:48;;;;;;;4.75;3.40;;;;;;;;;;4983522;28;20042;-79
2022/08/03 10:07:14;;;;;;;44.88;39.67;;;;;;;;;;4971322;28;20015;-75
2022/08/03 10:09:51;;;;;;;35.90;24.15;;;;;;;;;;4970513;28;20026;-75
2022/08/03 10:12:17;;;;;;;70.85;56.90;;;;;;;;;;4983401;28;20034;-74
2022/08/03 10:14:44;;;;;;;16.38;14.15;;;;;;;;;;4983771;28;20021;-74
2022/08/03 10:17:09;;;;;;;3.92;2.88;;;;;;;;;;4984434;28;20022;-76
2022/08/03 10:19:35;;;;;;;2.63;1.58;;;;;;;;;;4984020;28;20109;-74
2022/08/03 10:22:02;;;;;;;1.65;1.50;;;;;;;;;;4983400;28;20034;-75
2022/08/03 10:24:28;;;;;;;3.33;1.63;;;;;;;;;;4983265;28;20382;-73
2022/08/03 10:27:01;;;;;;;1.58;1.40;;;;;;;;;;4984635;28;20011;-75
2022/08/03 10:29:27;;;;;;;1.73;1.45;;;;;;;;;;4983631;28;20034;-76
2022/08/03 10:31:55;;;;;;;1.88;1.70;;;;;;;;;;4982805;28;20033;-75
2022/08/03 10:34:25;;;;;;;2.37;1.73;;;;;;;;;;4983386;28;20069;-77
2022/08/03 10:36:54;;;;;;;1.73;1.63;;;;;;;;;;4984358;28;20327;-74
2022/08/03 10:39:21;;;;;;;2.08;1.35;;;;;;;;;;4981280;28;20355;-75
2022/08/03 10:41:47;;;;;;;1.42;1.33;;;;;;;;;;4984808;28;20369;-75
2022/08/03 10:44:16;;;;;;;1.27;1.23;;;;;;;;;;4982503;28;20026;-76
2022/08/03 10:46:42;;;;;;;1.73;1.27;;;;;;;;;;4984332;28;20045;-77
2022/08/03 10:49:07;;;;;;;1.75;1.65;;;;;;;;;;4984457;28;20030;-77
2022/08/03 10:51:33;;;;;;;2.22;1.10;;;;;;;;;;4983132;28;20339;-76
2022/08/03 10:53:59;;;;;;;1.95;1.85;;;;;;;;;;4980706;28;20317;-77
2022/08/03 10:59:14;;;;;;;1.60;1.50;;;;;;;;;;4969916;28;20041;-75
2022/08/03 11:02:00;;;;;;;1.20;1.10;;;;;;;;;;4969528;28;20030;-76
2022/08/03 11:04:25;;;;;;;1.80;1.30;;;;;;;;;;4975298;28;20108;-76
2022/08/03 11:07:09;;;;;;;1.40;1.30;;;;;;;;;;4983193;28;20413;-79
2022/08/03 11:09:40;;;;;;;1.75;1.65;;;;;;;;;;4972232;28;20039;-77
2022/08/03 11:12:19;;;;;;;1.60;1.50;;;;;;;;;;4964389;28;20030;-78
2022/08/03 11:14:46;;;;;;;1.65;1.40;;;;;;;;;;4965721;28;20038;-75
2022/08/03 11:17:12;;;;;;;5.53;1.23;;;;;;;;;;4966747;28;20022;-79
2022/08/03 11:19:44;;;;;;;2.70;1.40;;;;;;;;;;4964467;28;20045;-76
2022/08/03 11:22:10;;;;;;;3.08;1.50;;;;;;;;;;4970531;28;20034;-76
2022/08/03 11:24:35;;;;;;;1.58;1.48;;;;;;;;;;4971894;28;20080;-75
2022/08/03 11:27:19;;;;;;;4.90;2.03;;;;;;;;;;4983402;28;20030;-75
2022/08/03 11:30:04;;;;;;;1.02;1.02;;;;;;;;;;4982778;28;20298;-77
2022/08/03 11:32:50;;;;;;;1.40;1.30;;;;;;;;;;4983717;28;20026;-77
2022/08/03 11:35:15;;;;;;;2.00;1.20;;;;;;;;;;4982230;28;20031;-76
2022/08/03 11:38:07;;;;;;;3.07;1.40;;;;;;;;;;4983231;28;20081;-76
2022/08/03 11:40:45;;;;;;;1.20;1.10;;;;;;;;;;4980370;28;20724;-77
2022/08/03 11:43:28;;;;;;;1.33;1.23;;;;;;;;;;4983150;28;20041;-76
2022/08/03 11:46:00;;;;;;;1.30;1.20;;;;;;;;;;4982240;28;20081;-76
2022/08/03 11:48:45;;;;;;;1.40;1.30;;;;;;;;;;4982978;28;20088;-78
2022/08/03 11:51:31;;;;;;;1.20;1.10;;;;;;;;;;4982832;28;20096;-76
2022/08/03 11:53:58;;;;;;;1.50;1.40;;;;;;;;;;4982904;28;20089;-76
2022/08/03 11:56:24;;;;;;;0.93;0.93;;;;;;;;;;4983727;28;20111;-76
2022/08/03 11:58:53;;;;;;;1.35;1.25;;;;;;;;;;4983601;28;20209;-77
2022/08/03 12:01:19;;;;;;;1.08;1.08;;;;;;;;;;4982250;28;20109;-77
2022/08/03 12:03:44;;;;;;;1.02;1.02;;;;;;;;;;4982389;28;20130;-76
2022/08/03 12:06:10;;;;;;;1.45;1.35;;;;;;;;;;4982365;28;20041;-76
2022/08/03 12:08:36;;;;;;;1.05;1.05;;;;;;;;;;4982535;28;20039;-75
2022/08/03 12:11:04;;;;;;;1.20;1.10;;;;;;;;;;4966718;28;20311;-79
2022/08/03 12:13:39;;;;;;;1.48;1.13;;;;;;;;;;4963937;28;20109;-77
2022/08/03 12:16:04;;;;;;;2.35;1.30;;;;;;;;;;4965143;28;20069;-76
2022/08/03 12:18:31;;;;;;;1.50;1.10;;;;;;;;;;4969511;28;20133;-76
2022/08/03 12:21:17;;;;;;;1.10;1.00;;;;;;;;;;4983237;28;20419;-77
2022/08/03 12:23:43;;;;;;;1.92;1.17;;;;;;;;;;4976239;28;20139;-75
2022/08/03 12:26:08;;;;;;;5.05;3.97;;;;;;;;;;4978511;28;20501;-74
2022/08/03 12:28:34;;;;;;;33.25;29.55;;;;;;;;;;4985039;28;20397;-76
2022/08/03 12:31:01;;;;;;;4.00;3.70;;;;;;;;;;4976787;28;20030;-75
2022/08/03 12:33:27;;;;;;;2.35;1.80;;;;;;;;;;4974609;28;21034;-75
2022/08/03 12:36:03;;;;;;;0.95;0.95;;;;;;;;;;4975649;28;20022;-76
2022/08/03 12:38:28;;;;;;;0.88;0.88;;;;;;;;;;4984793;28;20034;-75
2022/08/03 12:40:55;;;;;;;1.13;1.10;;;;;;;;;;4985687;28;20376;-75
2022/08/03 12:43:20;;;;;;;1.10;1.00;;;;;;;;;;4971096;28;20460;-76
2022/08/03 12:45:45;;;;;;;4.00;1.30;;;;;;;;;;4977518;28;20026;-77
2022/08/03 12:48:11;;;;;;;1.20;1.10;;;;;;;;;;4978832;28;20443;-76
2022/08/03 12:50:36;;;;;;;1.20;1.20;;;;;;;;;;4972707;28;20053;-76
2022/08/03 12:53:04;;;;;;;1.58;1.10;;;;;;;;;;4985914;28;20034;-78
2022/08/03 12:55:32;;;;;;;1.10;1.10;;;;;;;;;;4983471;28;20057;-75
2022/08/03 12:58:02;;;;;;;1.00;1.00;;;;;;;;;;4985350;28;20034;-76
2022/08/03 13:00:29;;;;;;;1.40;1.35;;;;;;;;;;4979904;28;20041;-76
2022/08/03 13:03:12;;;;;;;1.30;1.20;;;;;;;;;;4968513;28;20039;-75
2022/08/03 13:05:44;;;;;;;0.98;0.98;;;;;;;;;;4965881;28;21140;-74
2022/08/03 13:08:19;;;;;;;1.02;1.02;;;;;;;;;;4967147;28;20026;-76
2022/08/03 13:10:44;;;;;;;0.82;0.82;;;;;;;;;;4966806;28;20117;-76
2022/08/03 13:13:10;;;;;;;1.00;1.00;;;;;;;;;;4968766;28;20110;-74
2022/08/03 13:15:36;;;;;;;1.10;1.10;;;;;;;;;;4968723;28;20089;-76
2022/08/03 13:18:01;;;;;;;1.40;1.30;;;;;;;;;;4969674;28;20042;-75
2022/08/03 13:20:26;;;;;;;0.90;0.90;;;;;;;;;;4982456;28;20449;-74
2022/08/03 13:22:52;;;;;;;2.00;1.00;;;;;;;;;;4985653;28;20037;-76
2022/08/03 13:25:19;;;;;;;5.00;3.97;;;;;;;;;;4985855;28;20026;-76
2022/08/03 13:27:44;;;;;;;2.58;2.38;;;;;;;;;;4984793;28;20069;-75
2022/08/03 13:30:10;;;;;;;1.35;1.35;;;;;;;;;;4983822;28;20058;-75
2022/08/03 13:32:35;;;;;;;1.33;1.10;;;;;;;;;;4985259;28;20019;-76
2022/08/03 13:35:01;;;;;;;2.17;1.95;;;;;;;;;;4985299;28;20485;-75
2022/08/03 13:37:27;;;;;;;1.80;1.70;;;;;;;;;;4980662;28;20065;-75
2022/08/03 13:39:52;;;;;;;2.00;1.77;;;;;;;;;;4975329;28;20442;-76
2022/08/03 13:42:18;;;;;;;1.65;1.55;;;;;;;;;;4972105;28;20077;-74
2022/08/03 13:44:43;;;;;;;1.88;1.77;;;;;;;;;;4961167;28;20030;-74
2022/08/03 13:47:08;;;;;;;1.60;1.50;;;;;;;;;;4963596;28;20553;-76
2022/08/03 13:49:34;;;;;;;1.25;1.23;;;;;;;;;;4965687;28;20766;-75
2022/08/03 13:52:00;;;;;;;2.08;1.70;;;;;;;;;;4960227;28;20567;-75
2022/08/03 13:54:25;;;;;;;3.83;3.53;;;;;;;;;;4962497;28;20041;-75
2022/08/03 13:56:53;;;;;;;1.38;1.27;;;;;;;;;;4964093;28;20031;-75
2022/08/03 13:59:19;;;;;;;1.35;1.02;;;;;;;;;;4966537;28;20367;-75
2022/08/03 14:01:45;;;;;;;1.77;1.08;;;;;;;;;;4967641;28;20030;-75
2022/08/03 14:04:10;;;;;;;2.17;1.23;;;;;;;;;;4966978;28;20037;-76
2022/08/03 14:06:36;;;;;;;0.93;0.93;;;;;;;;;;4969169;28;20041;-75
2022/08/03 14:09:01;;;;;;;1.58;1.48;;;;;;;;;;4967328;28;20117;-75
2022/08/03 14:11:27;;;;;;;1.65;1.55;;;;;;;;;;4968114;28;20054;-77
2022/08/03 14:13:52;;;;;;;1.40;1.30;;;;;;;;;;4967116;28;20453;-75
2022/08/03 14:16:17;;;;;;;1.63;1.20;;;;;;;;;;4965665;28;20038;-75
2022/08/03 14:18:43;;;;;;;1.13;1.00;;;;;;;;;;4979020;28;20117;-75
2022/08/03 14:21:08;;;;;;;1.27;1.17;;;;;;;;;;4983494;28;20054;-76
2022/08/03 14:23:34;;;;;;;0.90;0.90;;;;;;;;;;4983517;28;20085;-75
2022/08/03 14:25:59;;;;;;;1.73;0.95;;;;;;;;;;4980129;28;20054;-75
2022/08/03 14:28:25;;;;;;;1.40;1.30;;;;;;;;;;4972031;28;20076;-76
2022/08/03 14:30:51;;;;;;;1.10;1.10;;;;;;;;;;4982516;28;20113;-75
2022/08/03 14:33:16;;;;;;;1.15;1.08;;;;;;;;;;4981886;28;20025;-78
2022/08/03 14:35:42;;;;;;;0.80;0.80;;;;;;;;;;4983829;28;20097;-73
2022/08/03 14:38:07;;;;;;;2.30;2.20;;;;;;;;;;4983854;28;20034;-73
2022/08/03 14:40:32;;;;;;;1.35;1.25;;;;;;;;;;4981680;28;20133;-74
2022/08/03 14:42:58;;;;;;;1.42;1.33;;;;;;;;;;4981757;28;20118;-76
2022/08/03 14:45:23;;;;;;;1.77;1.30;;;;;;;;;;4969054;28;20026;-74
2022/08/03 14:47:49;;;;;;;3.17;1.30;;;;;;;;;;4963511;28;20026;-75
2022/08/03 14:50:15;;;;;;;1.48;1.38;;;;;;;;;;4962282;28;20401;-76
2022/08/03 14:52:40;;;;;;;1.10;1.02;;;;;;;;;;4960594;28;20030;-74